createdAt,value
2022-08-26T00:01:17.456Z,85.49
2022-08-26T00:03:54.783Z,85.73
2022-08-26T00:06:24.917Z,86.12
2022-08-26T00:08:57.709Z,86.57
2022-08-26T00:11:28.838Z,87.46
2022-08-26T00:14:00.701Z,87.59
2022-08-26T00:16:32.256Z,87.90
2022-08-26T00:19:02.759Z,87.48
2022-08-26T00:21:32.805Z,87.68
2022-08-26T00:24:07.416Z,87.38
2022-08-26T00:26:37.773Z,87.86
2022-08-26T00:29:08.005Z,87.65
2022-08-26T00:31:39.899Z,87.80
2022-08-26T00:34:11.294Z,88.84
2022-08-26T00:36:42.624Z,88.93
2022-08-26T00:39:15.964Z,89.48
2022-08-26T00:41:46.913Z,89.68
2022-08-26T00:44:17.132Z,89.08
2022-08-26T00:46:53.939Z,88.46
2022-08-26T00:49:34.196Z,88.09
2022-08-26T00:52:09.685Z,87.83
2022-08-26T00:54:47.365Z,87.84
2022-08-26T00:57:21.031Z,87.59
2022-08-26T00:59:58.298Z,88.27
2022-08-26T01:02:28.897Z,88.36
2022-08-26T01:05:04.281Z,89.09
2022-08-26T01:07:39.244Z,88.91
2022-08-26T01:10:17.229Z,89.79
2022-08-26T01:12:52.813Z,89.96
2022-08-26T01:15:29.176Z,89.94
2022-08-26T01:18:04.136Z,89.73
2022-08-26T01:20:43.254Z,90.12
2022-08-26T01:23:16.425Z,89.87
2022-08-26T01:25:51.903Z,89.37
2022-08-26T01:28:26.762Z,89.43
2022-08-26T01:30:59.785Z,89.42
2022-08-26T01:33:47.856Z,89.54
2022-08-26T01:36:20.778Z,89.36
2022-08-26T01:38:53.608Z,89.51
2022-08-26T01:41:27.443Z,89.30
2022-08-26T01:44:00.394Z,89.04
2022-08-26T01:46:33.545Z,89.10
2022-08-26T01:49:07.983Z,89.20
2022-08-26T01:51:39.691Z,89.41
2022-08-26T01:54:14.268Z,89.78
2022-08-26T01:56:44.627Z,89.80
2022-08-26T01:59:18.128Z,90.90
2022-08-26T02:01:50.342Z,91.63
2022-08-26T02:04:29.126Z,91.24
2022-08-26T02:07:00.340Z,91.41
2022-08-26T02:09:33.464Z,91.36
2022-08-26T02:12:14.882Z,90.67
2022-08-26T02:14:52.029Z,91.10
2022-08-26T02:17:27.689Z,91.25
2022-08-26T02:19:59.463Z,91.70
2022-08-26T02:22:29.768Z,91.78
2022-08-26T02:25:12.007Z,92.42
2022-08-26T02:27:43.564Z,92.13
2022-08-26T02:30:18.617Z,91.89
2022-08-26T02:32:49.779Z,92.19
2022-08-26T02:35:23.417Z,92.72
2022-08-26T02:37:56.018Z,93.31
2022-08-26T02:40:34.978Z,93.67
2022-08-26T02:43:08.606Z,93.15
2022-08-26T02:45:40.322Z,92.53
2022-08-26T02:48:16.894Z,92.46
2022-08-26T02:50:50.050Z,92.63
2022-08-26T02:53:25.004Z,92.08
2022-08-26T02:55:58.524Z,91.42
2022-08-26T02:58:30.072Z,92.14
2022-08-26T03:01:00.374Z,91.94
2022-08-26T03:03:32.076Z,92.27
2022-08-26T03:06:02.961Z,92.34
2022-08-26T03:08:33.488Z,92.31
2022-08-26T03:11:06.127Z,92.43
2022-08-26T03:13:36.698Z,92.38
2022-08-26T03:16:08.650Z,92.87
2022-08-26T03:18:39.922Z,92.75
2022-08-26T03:21:11.661Z,92.01
2022-08-26T03:23:43.656Z,92.02
2022-08-26T03:26:18.862Z,91.61
2022-08-26T03:29:01.216Z,92.10
2022-08-26T03:31:33.069Z,92.45
2022-08-26T03:34:03.649Z,92.16
2022-08-26T03:36:35.029Z,92.10
2022-08-26T03:39:05.718Z,91.97
2022-08-26T03:41:39.956Z,92.27
2022-08-26T03:44:11.726Z,92.45
2022-08-26T03:46:42.108Z,93.04
2022-08-26T03:49:14.421Z,92.87
2022-08-26T03:51:45.400Z,93.42
2022-08-26T03:54:15.889Z,93.09
2022-08-26T03:56:48.689Z,93.32
2022-08-26T03:59:18.907Z,93.66
2022-08-26T04:01:49.100Z,94.13
2022-08-26T04:04:22.570Z,94.09
2022-08-26T04:06:53.208Z,94.05
2022-08-26T04:09:24.284Z,93.81
2022-08-26T04:11:59.642Z,94.08
2022-08-26T04:14:31.947Z,94.19
2022-08-26T04:17:04.566Z,94.30
2022-08-26T04:19:36.594Z,94.58
2022-08-26T04:22:06.564Z,95.42
2022-08-26T04:24:39.584Z,95.68
2022-08-26T04:27:12.581Z,95.98
2022-08-26T04:29:43.812Z,96.17
2022-08-26T04:32:14.016Z,97.22
2022-08-26T04:34:44.976Z,97.42
2022-08-26T04:37:16.599Z,97.72
2022-08-26T04:39:47.919Z,97.64
2022-08-26T04:42:26.258Z,97.91
2022-08-26T04:44:56.707Z,98.70
2022-08-26T04:47:31.720Z,98.08
2022-08-26T04:50:02.521Z,97.99
2022-08-26T04:52:32.755Z,98.40
2022-08-26T04:55:02.960Z,98.01
2022-08-26T04:57:39.005Z,97.26
2022-08-26T05:00:13.463Z,98.37
2022-08-26T05:02:43.879Z,98.74
2022-08-26T05:05:14.229Z,97.39
2022-08-26T05:07:44.762Z,96.66
2022-08-26T05:10:14.761Z,96.47
2022-08-26T05:12:47.654Z,96.06
2022-08-26T05:15:18.003Z,95.46
2022-08-26T05:17:50.507Z,94.95
2022-08-26T05:20:25.622Z,94.86
2022-08-26T05:22:56.502Z,95.22
2022-08-26T05:25:27.437Z,95.24
2022-08-26T05:28:00.287Z,95.33
2022-08-26T05:30:32.945Z,94.66
2022-08-26T05:33:05.112Z,95.10
2022-08-26T05:35:36.294Z,95.44
2022-08-26T05:38:12.652Z,94.76
2022-08-26T05:40:47.319Z,93.83
2022-08-26T05:43:20.647Z,93.33
2022-08-26T05:45:53.222Z,92.85
2022-08-26T05:48:24.524Z,92.34
2022-08-26T05:50:56.338Z,91.99
2022-08-26T05:53:26.484Z,91.65
2022-08-26T05:55:58.526Z,90.79
2022-08-26T05:58:32.663Z,90.02
2022-08-26T06:01:05.642Z,89.13
2022-08-26T06:03:38.768Z,88.00
2022-08-26T06:06:12.293Z,86.45
2022-08-26T06:08:44.141Z,85.47
2022-08-26T06:11:19.323Z,85.17
2022-08-26T06:13:53.461Z,84.25
2022-08-26T06:16:26.404Z,82.86
2022-08-26T06:18:57.768Z,82.45
2022-08-26T06:21:31.114Z,82.14
2022-08-26T06:24:16.808Z,81.25
2022-08-26T06:26:53.108Z,78.61
2022-08-26T06:29:28.581Z,77.88
2022-08-26T06:32:00.351Z,76.74
2022-08-26T06:34:31.792Z,74.94
2022-08-26T06:37:06.326Z,75.43
2022-08-26T06:39:40.123Z,74.75
2022-08-26T06:42:11.934Z,72.60
2022-08-26T06:44:45.540Z,73.13
2022-08-26T06:47:15.926Z,72.47
2022-08-26T06:49:46.098Z,71.68
2022-08-26T06:52:21.193Z,70.60
2022-08-26T06:54:54.540Z,70.09
2022-08-26T06:57:24.475Z,68.80
2022-08-26T06:59:57.221Z,68.38
2022-08-26T07:02:28.504Z,67.26
2022-08-26T07:04:59.118Z,66.11
2022-08-26T07:07:29.658Z,64.69
2022-08-26T07:09:59.882Z,64.87
2022-08-26T07:12:29.956Z,65.46
2022-08-26T07:15:02.862Z,65.75
2022-08-26T07:17:33.020Z,65.23
2022-08-26T07:20:07.031Z,64.13
2022-08-26T07:22:38.454Z,62.70
2022-08-26T07:25:11.770Z,61.32
2022-08-26T07:27:42.450Z,60.51
2022-08-26T07:30:15.991Z,59.52
2022-08-26T07:32:46.365Z,59.60
2022-08-26T07:35:16.300Z,58.76
2022-08-26T07:37:46.613Z,56.80
2022-08-26T07:40:16.800Z,57.09
2022-08-26T07:42:47.397Z,57.41
2022-08-26T07:45:21.599Z,55.93
2022-08-26T07:47:52.502Z,55.32
2022-08-26T07:50:49.223Z,54.90
2022-08-26T07:53:13.270Z,53.79
2022-08-26T07:55:45.320Z,52.87
2022-08-26T07:58:15.603Z,52.75
2022-08-26T08:00:49.024Z,52.02
2022-08-26T08:03:20.682Z,51.43
2022-08-26T08:05:51.086Z,49.96
2022-08-26T08:08:27.941Z,49.01
2022-08-26T08:10:59.939Z,49.09
2022-08-26T08:13:30.600Z,46.95
2022-08-26T08:16:05.107Z,45.45
2022-08-26T08:18:35.457Z,43.52
2022-08-26T08:21:21.426Z,41.31
2022-08-26T08:23:52.736Z,38.46
2022-08-26T08:26:23.648Z,37.81
2022-08-26T08:28:57.174Z,37.05
2022-08-26T08:34:23.267Z,35.22
2022-08-26T08:36:54.278Z,33.13
2022-08-26T08:39:25.086Z,32.69
2022-08-26T08:42:30.626Z,32.07
2022-08-26T08:45:07.949Z,30.92
2022-08-26T08:47:45.271Z,30.05
2022-08-26T08:50:26.290Z,31.59
2022-08-26T08:53:12.772Z,30.48
2022-08-26T08:56:09.741Z,29.80
2022-08-26T08:58:56.865Z,29.11
2022-08-26T09:01:53.909Z,28.22
2022-08-26T09:05:05.070Z,27.33
2022-08-26T09:07:41.221Z,27.54
2022-08-26T09:10:32.309Z,26.95
2022-08-26T09:13:04.690Z,26.64
2022-08-26T09:15:52.860Z,27.78
2022-08-26T09:18:42.767Z,30.12
2022-08-26T09:21:23.561Z,29.09
2022-08-26T09:23:57.192Z,31.40
2022-08-26T09:26:31.747Z,31.72
2022-08-26T09:29:04.923Z,30.21
2022-08-26T09:31:37.850Z,31.26
2022-08-26T09:34:17.861Z,33.83
2022-08-26T09:36:53.706Z,35.79
2022-08-26T09:39:37.839Z,37.92
2022-08-26T09:42:14.329Z,39.37
2022-08-26T09:44:59.565Z,41.05
2022-08-26T09:47:34.036Z,42.15
2022-08-26T09:50:12.426Z,43.21
2022-08-26T09:52:45.494Z,44.28
2022-08-26T09:55:23.157Z,42.54
2022-08-26T09:57:55.697Z,38.13
2022-08-26T10:00:34.017Z,35.62
2022-08-26T10:03:08.971Z,35.93
2022-08-26T10:05:44.944Z,37.20
2022-08-26T10:08:30.898Z,36.55
2022-08-26T10:11:04.638Z,35.23
2022-08-26T10:13:39.799Z,36.24
2022-08-26T10:16:20.834Z,39.91
2022-08-26T10:19:02.292Z,44.48
2022-08-26T10:21:41.895Z,48.76
2022-08-26T10:24:22.787Z,51.69
2022-08-26T10:27:04.323Z,53.86
2022-08-26T10:29:42.630Z,54.90
2022-08-26T10:32:20.902Z,57.42
2022-08-26T10:34:51.095Z,58.62
2022-08-26T10:37:26.855Z,62.24
2022-08-26T10:40:05.860Z,62.44
2022-08-26T10:42:40.825Z,63.77
2022-08-26T10:45:15.641Z,64.58
2022-08-26T10:47:53.378Z,66.45
2022-08-26T10:50:34.972Z,67.64
2022-08-26T10:53:17.435Z,70.08
2022-08-26T10:55:57.333Z,73.17
2022-08-26T10:58:53.858Z,74.24
2022-08-26T11:01:51.066Z,67.80
2022-08-26T11:04:48.094Z,67.79
2022-08-26T11:07:43.202Z,70.63
2022-08-26T11:10:45.248Z,71.97
2022-08-26T11:13:17.935Z,72.58
2022-08-26T11:16:12.419Z,74.21
2022-08-26T11:18:51.339Z,73.85
2022-08-26T11:22:06.262Z,74.16
2022-08-26T11:25:13.627Z,73.82
2022-08-26T11:28:06.061Z,73.74
2022-08-26T11:30:58.344Z,73.82
2022-08-26T11:33:52.896Z,73.21
2022-08-26T11:36:59.830Z,73.85
2022-08-26T11:39:38.396Z,74.70
2022-08-26T11:42:24.447Z,75.30
2022-08-26T11:44:59.362Z,76.01
2022-08-26T11:47:35.730Z,75.90
2022-08-26T11:50:16.506Z,75.84
2022-08-26T11:52:54.514Z,76.78
2022-08-26T11:55:25.387Z,76.64
2022-08-26T11:58:00.921Z,78.10
2022-08-26T12:00:36.175Z,79.43
2022-08-26T12:03:11.934Z,78.95
2022-08-26T12:05:50.130Z,79.36
2022-08-26T12:08:24.766Z,79.67
2022-08-26T12:11:07.097Z,80.42
2022-08-26T12:13:39.306Z,79.14
2022-08-26T12:16:10.269Z,79.43
2022-08-26T12:18:44.787Z,79.36
2022-08-26T12:21:18.846Z,75.68
2022-08-26T12:23:51.164Z,74.93
2022-08-26T12:26:29.513Z,73.56
2022-08-26T12:29:12.930Z,72.31
2022-08-26T12:31:54.747Z,69.70
2022-08-26T12:34:28.215Z,67.88
2022-08-26T12:37:00.882Z,66.40
2022-08-26T12:39:34.175Z,67.50
2022-08-26T12:42:08.554Z,65.88
2022-08-26T12:44:54.185Z,68.07
2022-08-26T12:47:43.030Z,68.83
2022-08-26T12:50:23.673Z,71.91
2022-08-26T12:53:02.814Z,72.39
2022-08-26T12:55:44.909Z,74.83
2022-08-26T12:58:25.635Z,76.80
2022-08-26T13:00:57.567Z,77.62
2022-08-26T13:03:45.641Z,78.44
2022-08-26T13:06:31.274Z,77.93
2022-08-26T13:09:06.081Z,78.31
2022-08-26T13:11:58.871Z,78.37
2022-08-26T13:14:29.217Z,76.99
2022-08-26T13:16:59.667Z,74.12
2022-08-26T13:19:29.859Z,73.65
2022-08-26T13:22:04.072Z,70.67
2022-08-26T13:24:38.181Z,68.44
2022-08-26T13:27:15.512Z,67.02
2022-08-26T13:29:45.919Z,66.77
2022-08-26T13:32:18.097Z,65.64
2022-08-26T13:34:52.946Z,64.20
2022-08-26T13:37:35.285Z,64.69
2022-08-26T13:40:08.604Z,64.60
2022-08-26T13:42:43.007Z,65.71
2022-08-26T13:45:20.847Z,64.53
2022-08-26T13:47:51.133Z,65.60
2022-08-26T13:50:21.319Z,65.81
2022-08-26T13:52:53.894Z,66.52
2022-08-26T13:55:24.133Z,68.38
2022-08-26T13:57:54.124Z,69.36
2022-08-26T14:00:24.694Z,70.76
2022-08-26T14:02:54.962Z,71.96
2022-08-26T14:05:25.179Z,72.84
2022-08-26T14:07:58.426Z,73.04
2022-08-26T14:10:30.340Z,73.71
2022-08-26T14:13:00.559Z,74.70
2022-08-26T14:15:30.889Z,74.65
2022-08-26T14:18:01.104Z,74.18
2022-08-26T14:20:32.825Z,73.94
2022-08-26T14:23:14.579Z,72.62
2022-08-26T14:25:44.999Z,72.66
2022-08-26T14:28:15.034Z,72.74
2022-08-26T14:30:47.382Z,71.75
2022-08-26T14:33:18.298Z,71.82
2022-08-26T14:35:49.006Z,72.76
2022-08-26T14:38:22.792Z,74.20
2022-08-26T14:40:56.087Z,74.74
2022-08-26T14:43:26.410Z,73.91
2022-08-26T14:45:56.632Z,74.14
2022-08-26T14:48:26.808Z,73.97
2022-08-26T14:50:57.035Z,74.46
2022-08-26T14:53:42.257Z,74.91
2022-08-26T14:56:16.524Z,74.06
2022-08-26T14:58:47.106Z,73.97
2022-08-26T15:01:17.083Z,73.78
2022-08-26T15:03:47.393Z,73.96
2022-08-26T15:06:19.669Z,73.12
2022-08-26T15:08:52.648Z,72.35
2022-08-26T15:11:22.949Z,71.94
2022-08-26T15:13:53.077Z,72.00
2022-08-26T15:16:23.489Z,72.13
2022-08-26T15:18:54.304Z,72.70
2022-08-26T15:21:24.962Z,72.56
2022-08-26T15:23:58.175Z,74.26
2022-08-26T15:26:28.698Z,74.59
2022-08-26T15:29:04.713Z,74.41
2022-08-26T15:31:36.725Z,73.84
2022-08-26T15:34:14.617Z,74.52
2022-08-26T15:36:47.510Z,74.85
2022-08-26T15:39:21.082Z,74.36
2022-08-26T15:41:51.767Z,74.29
2022-08-26T15:44:22.048Z,73.07
2022-08-26T15:46:58.494Z,72.03
2022-08-26T15:49:30.326Z,71.35
2022-08-26T15:52:04.217Z,70.53
2022-08-26T15:54:39.686Z,70.79
2022-08-26T15:57:13.621Z,70.93
2022-08-26T15:59:45.420Z,71.00
2022-08-26T16:02:15.736Z,70.89
2022-08-26T16:04:46.091Z,70.75
2022-08-26T16:07:16.076Z,71.27
2022-08-26T16:09:52.097Z,71.46
2022-08-26T16:12:24.689Z,71.37
2022-08-26T16:14:54.919Z,71.21
2022-08-26T16:17:25.307Z,71.15
2022-08-26T16:19:56.384Z,72.44
2022-08-26T16:22:27.930Z,72.76
2022-08-26T16:25:02.348Z,72.96
2022-08-26T16:27:32.612Z,73.96
2022-08-26T16:30:02.602Z,74.80
2022-08-26T16:32:32.835Z,74.50
2022-08-26T16:35:02.999Z,75.15
2022-08-26T16:37:35.467Z,76.01
2022-08-26T16:40:13.337Z,75.39
2022-08-26T16:42:43.616Z,75.06
2022-08-26T16:45:14.008Z,74.92
2022-08-26T16:47:44.545Z,75.74
2022-08-26T16:50:15.133Z,76.09
2022-08-26T16:52:45.402Z,75.21
2022-08-26T16:55:19.460Z,76.28
2022-08-26T16:57:49.958Z,76.58
2022-08-26T17:00:24.642Z,76.29
2022-08-26T17:02:55.153Z,76.39
2022-08-26T17:05:26.625Z,76.96
2022-08-26T17:07:57.713Z,77.86
2022-08-26T17:10:32.430Z,80.16
2022-08-26T17:13:03.292Z,79.97
2022-08-26T17:15:33.592Z,81.48
2022-08-26T17:18:03.625Z,82.07
2022-08-26T17:20:34.275Z,81.72
2022-08-26T17:23:04.998Z,82.76
2022-08-26T17:25:37.896Z,83.04
2022-08-26T17:28:13.187Z,83.02
2022-08-26T17:30:44.491Z,83.59
2022-08-26T17:33:14.969Z,85.24
2022-08-26T17:35:49.228Z,85.91
2022-08-26T17:38:19.868Z,86.18
2022-08-26T17:40:53.655Z,87.60
2022-08-26T17:43:24.113Z,87.72
2022-08-26T17:45:54.581Z,88.12
2022-08-26T17:48:25.092Z,87.96
2022-08-26T17:50:56.608Z,88.17
2022-08-26T17:53:29.240Z,88.58
2022-08-26T17:56:02.429Z,88.86
2022-08-26T17:58:32.812Z,89.52
2022-08-26T18:01:06.211Z,90.00
2022-08-26T18:03:37.286Z,90.93
2022-08-26T18:06:13.108Z,91.25
2022-08-26T18:08:45.125Z,91.44
2022-08-26T18:11:21.005Z,92.00
2022-08-26T18:13:51.604Z,92.03
2022-08-26T18:16:23.495Z,91.77
2022-08-26T18:18:54.492Z,91.64
2022-08-26T18:21:29.956Z,92.20
2022-08-26T18:24:00.391Z,92.55
2022-08-26T18:26:37.016Z,92.77
2022-08-26T18:29:08.899Z,92.30
2022-08-26T18:31:39.311Z,92.31
2022-08-26T18:34:12.915Z,92.47
2022-08-26T18:36:43.894Z,93.14
2022-08-26T18:39:18.379Z,93.23
2022-08-26T18:41:55.314Z,93.31
2022-08-26T18:44:26.433Z,93.61
2022-08-26T18:46:56.929Z,93.20
2022-08-26T18:49:27.087Z,92.63
2022-08-26T18:51:57.463Z,92.53
2022-08-26T18:54:27.956Z,92.81
2022-08-26T18:57:02.979Z,93.09
2022-08-26T18:59:33.337Z,92.95
2022-08-26T19:02:03.823Z,93.22
2022-08-26T19:04:34.596Z,92.80
2022-08-26T19:07:05.225Z,93.35
2022-08-26T19:09:36.076Z,94.06
2022-08-26T19:12:10.117Z,93.86
2022-08-26T19:14:40.544Z,93.54
2022-08-26T19:17:10.732Z,94.01
2022-08-26T19:19:41.465Z,94.47
2022-08-26T19:22:12.067Z,94.42
2022-08-26T19:24:42.050Z,94.97
2022-08-26T19:27:15.238Z,95.08
2022-08-26T19:29:45.601Z,95.24
2022-08-26T19:32:17.163Z,94.12
2022-08-26T19:34:47.600Z,94.54
2022-08-26T19:37:17.982Z,94.38
2022-08-26T19:39:49.019Z,94.14
2022-08-26T19:42:22.256Z,94.03
2022-08-26T19:45:04.973Z,94.35
2022-08-26T19:47:36.603Z,95.12
2022-08-26T19:50:11.644Z,95.09
2022-08-26T19:52:45.710Z,95.63
2022-08-26T19:55:18.698Z,95.51
2022-08-26T19:57:53.099Z,95.63
2022-08-26T20:00:27.428Z,96.33
2022-08-26T20:02:58.556Z,96.62
2022-08-26T20:05:30.162Z,96.72
2022-08-26T20:08:00.844Z,97.56
2022-08-26T20:10:31.835Z,98.86
2022-08-26T20:13:04.823Z,99.82
2022-08-26T20:15:39.116Z,99.57
2022-08-26T20:18:30.060Z,100.00
2022-08-26T20:21:12.568Z,100.00
2022-08-26T20:23:43.922Z,100.00
2022-08-26T20:26:14.958Z,100.00
2022-08-26T20:28:51.473Z,100.00
2022-08-26T20:31:22.223Z,100.00
2022-08-26T20:33:53.317Z,100.00
2022-08-26T20:36:27.079Z,100.00
2022-08-26T20:38:58.945Z,100.00
2022-08-26T20:41:30.995Z,100.00
2022-08-26T20:44:04.886Z,100.00
2022-08-26T20:46:36.528Z,100.00
2022-08-26T20:49:08.441Z,100.00
2022-08-26T20:51:40.186Z,100.00
2022-08-26T20:54:11.806Z,100.00
2022-08-26T20:56:42.327Z,100.00
2022-08-26T20:59:15.698Z,100.00
2022-08-26T21:01:46.570Z,100.00
2022-08-26T21:04:21.996Z,100.00
2022-08-26T21:06:54.610Z,100.00
2022-08-26T21:09:27.451Z,100.00
2022-08-26T21:11:59.452Z,100.00
2022-08-26T21:14:33.123Z,100.00
2022-08-26T21:17:04.130Z,100.00
2022-08-26T21:19:34.656Z,100.00
2022-08-26T21:22:05.133Z,100.00
2022-08-26T21:24:36.155Z,100.00
2022-08-26T21:27:08.013Z,100.00
2022-08-26T21:29:42.075Z,100.00
2022-08-26T21:32:12.734Z,100.00
2022-08-26T21:34:46.161Z,100.00
2022-08-26T21:37:17.126Z,100.00
2022-08-26T21:39:47.771Z,100.00
2022-08-26T21:42:18.463Z,100.00
2022-08-26T21:44:53.523Z,100.00
2022-08-26T21:47:24.691Z,100.00
2022-08-26T21:49:55.935Z,100.00
2022-08-26T21:52:26.651Z,100.00
2022-08-26T21:55:01.336Z,100.00
2022-08-26T21:57:32.653Z,100.00
2022-08-26T22:00:08.380Z,100.00
2022-08-26T22:02:39.253Z,100.00
2022-08-26T22:05:10.778Z,100.00
2022-08-26T22:07:41.249Z,100.00
2022-08-26T22:10:11.828Z,100.00
2022-08-26T22:12:42.140Z,100.00
2022-08-26T22:15:16.021Z,100.00
2022-08-26T22:17:46.280Z,100.00
2022-08-26T22:20:16.894Z,100.00
2022-08-26T22:22:47.159Z,100.00
2022-08-26T22:25:17.391Z,100.00
2022-08-26T22:27:47.698Z,100.00
2022-08-26T22:30:21.207Z,100.00
2022-08-26T22:32:51.512Z,100.00
2022-08-26T22:35:28.948Z,100.00
2022-08-26T22:38:01.013Z,97.35
2022-08-26T22:40:31.376Z,96.54
2022-08-26T22:43:02.329Z,94.96
2022-08-26T22:45:35.677Z,97.25
2022-08-26T22:48:07.208Z,96.19
2022-08-26T22:50:37.482Z,98.53
2022-08-26T22:53:07.770Z,97.26
2022-08-26T22:55:39.189Z,96.06
2022-08-26T22:58:09.718Z,99.40
2022-08-26T23:00:42.856Z,100.00
2022-08-26T23:03:14.505Z,100.00
2022-08-26T23:05:45.206Z,100.00
2022-08-26T23:08:17.543Z,100.00
2022-08-26T23:10:50.118Z,100.00
2022-08-26T23:13:21.267Z,100.00
2022-08-26T23:16:03.747Z,100.00
2022-08-26T23:18:34.211Z,100.00
2022-08-26T23:21:04.784Z,100.00
2022-08-26T23:23:35.536Z,100.00
2022-08-26T23:26:06.503Z,100.00
2022-08-26T23:28:37.272Z,100.00
2022-08-26T23:31:10.174Z,100.00
2022-08-26T23:33:52.872Z,100.00
2022-08-26T23:36:23.781Z,100.00
2022-08-26T23:38:54.444Z,100.00
2022-08-26T23:41:24.569Z,100.00
2022-08-26T23:43:55.340Z,100.00
2022-08-26T23:46:28.131Z,100.00
2022-08-26T23:48:58.352Z,100.00
2022-08-26T23:51:41.080Z,100.00
2022-08-26T23:54:11.313Z,100.00
2022-08-26T23:56:42.206Z,100.00
2022-08-26T23:59:12.418Z,100.00
